sensor_id;sensor_type;location;lat;lon;timestamp;pressure;altitude;pressure_sealevel;temperature;humidity
80851;BME280;70268;50.292;6.666;2023-07-24T00:00:51;95663.91;;;22.39;54.83
80851;BME280;70268;50.292;6.666;2023-07-24T00:03:21;95658.84;;;22.38;54.73
80851;BME280;70268;50.292;6.666;2023-07-24T00:05:49;95658.41;;;22.41;54.96
80851;BME280;70268;50.292;6.666;2023-07-24T00:08:18;95656.81;;;22.40;54.93
80851;BME280;70268;50.292;6.666;2023-07-24T00:10:46;95651.81;;;22.32;54.96
80851;BME280;70268;50.292;6.666;2023-07-24T00:13:15;95641.84;;;22.34;54.98
80851;BME280;70268;50.292;6.666;2023-07-24T00:15:44;95641.63;;;22.35;55.11
80851;BME280;70268;50.292;6.666;2023-07-24T00:18:12;95644.66;;;22.39;55.02
80851;BME280;70268;50.292;6.666;2023-07-24T00:20:42;95657.06;;;22.32;55.18
80851;BME280;70268;50.292;6.666;2023-07-24T00:23:11;95656.06;;;22.33;55.13
80851;BME280;70268;50.292;6.666;2023-07-24T00:25:39;95655.22;;;22.32;55.25
80851;BME280;70268;50.292;6.666;2023-07-24T00:28:08;95649.38;;;22.30;55.18
80851;BME280;70268;50.292;6.666;2023-07-24T00:30:38;95651.44;;;22.28;55.32
80851;BME280;70268;50.292;6.666;2023-07-24T00:33:06;95653.44;;;22.26;55.37
80851;BME280;70268;50.292;6.666;2023-07-24T00:35:36;95642.13;;;22.26;55.17
80851;BME280;70268;50.292;6.666;2023-07-24T00:38:05;95640.28;;;22.26;55.29
80851;BME280;70268;50.292;6.666;2023-07-24T00:40:34;95628.16;;;22.25;55.19
80851;BME280;70268;50.292;6.666;2023-07-24T00:43:02;95618.41;;;22.26;55.18
80851;BME280;70268;50.292;6.666;2023-07-24T00:45:31;95614.59;;;22.21;55.33
80851;BME280;70268;50.292;6.666;2023-07-24T00:48:00;95611.97;;;22.21;55.45
80851;BME280;70268;50.292;6.666;2023-07-24T00:50:29;95605.31;;;22.19;55.39
80851;BME280;70268;50.292;6.666;2023-07-24T00:52:59;95603.47;;;22.19;55.51
80851;BME280;70268;50.292;6.666;2023-07-24T00:55:29;95599.00;;;22.20;55.22
80851;BME280;70268;50.292;6.666;2023-07-24T00:57:58;95591.09;;;22.20;55.29
80851;BME280;70268;50.292;6.666;2023-07-24T01:00:27;95589.31;;;22.14;55.51
80851;BME280;70268;50.292;6.666;2023-07-24T01:02:56;95585.47;;;22.16;55.60
80851;BME280;70268;50.292;6.666;2023-07-24T01:05:25;95577.56;;;22.16;55.58
80851;BME280;70268;50.292;6.666;2023-07-24T01:07:54;95582.84;;;22.16;55.28
80851;BME280;70268;50.292;6.666;2023-07-24T01:10:22;95580.41;;;22.15;55.57
80851;BME280;70268;50.292;6.666;2023-07-24T01:12:58;95570.09;;;22.13;55.65
80851;BME280;70268;50.292;6.666;2023-07-24T01:15:32;95573.16;;;22.10;55.70
80851;BME280;70268;50.292;6.666;2023-07-24T01:18:06;95566.84;;;22.11;55.52
80851;BME280;70268;50.292;6.666;2023-07-24T01:20:37;95574.16;;;22.09;55.58
80851;BME280;70268;50.292;6.666;2023-07-24T01:23:22;95588.97;;;22.10;55.71
80851;BME280;70268;50.292;6.666;2023-07-24T01:25:58;95592.59;;;22.09;55.69
80851;BME280;70268;50.292;6.666;2023-07-24T01:28:27;95595.81;;;22.11;55.52
80851;BME280;70268;50.292;6.666;2023-07-24T01:30:56;95601.72;;;22.07;55.72
80851;BME280;70268;50.292;6.666;2023-07-24T01:33:26;95599.28;;;22.05;55.76
80851;BME280;70268;50.292;6.666;2023-07-24T01:35:57;95605.97;;;22.08;55.61
80851;BME280;70268;50.292;6.666;2023-07-24T01:38:26;95592.03;;;22.00;56.02
80851;BME280;70268;50.292;6.666;2023-07-24T01:40:57;95580.88;;;22.05;55.36
80851;BME280;70268;50.292;6.666;2023-07-24T01:43:26;95567.50;;;22.07;55.83
80851;BME280;70268;50.292;6.666;2023-07-24T01:45:55;95563.28;;;22.06;55.76
80851;BME280;70268;50.292;6.666;2023-07-24T01:48:24;95569.53;;;22.04;55.86
80851;BME280;70268;50.292;6.666;2023-07-24T01:50:54;95562.28;;;22.00;55.95
80851;BME280;70268;50.292;6.666;2023-07-24T01:53:22;95563.28;;;21.99;55.91
80851;BME280;70268;50.292;6.666;2023-07-24T01:55:51;95564.13;;;21.99;55.88
80851;BME280;70268;50.292;6.666;2023-07-24T01:58:21;95560.03;;;22.03;55.69
80851;BME280;70268;50.292;6.666;2023-07-24T02:00:49;95547.06;;;22.02;55.78
80851;BME280;70268;50.292;6.666;2023-07-24T02:03:18;95552.56;;;22.00;55.82
80851;BME280;70268;50.292;6.666;2023-07-24T02:05:49;95550.13;;;21.99;55.99
80851;BME280;70268;50.292;6.666;2023-07-24T02:08:18;95549.97;;;21.94;56.19
80851;BME280;70268;50.292;6.666;2023-07-24T02:10:48;95551.19;;;21.91;56.20
80851;BME280;70268;50.292;6.666;2023-07-24T02:13:18;95546.28;;;22.01;56.02
80851;BME280;70268;50.292;6.666;2023-07-24T02:15:51;95539.44;;;21.94;56.29
80851;BME280;70268;50.292;6.666;2023-07-24T02:18:21;95537.41;;;21.96;56.21
80851;BME280;70268;50.292;6.666;2023-07-24T02:20:51;95533.97;;;21.95;56.07
80851;BME280;70268;50.292;6.666;2023-07-24T02:23:20;95514.97;;;21.93;56.26
80851;BME280;70268;50.292;6.666;2023-07-24T02:25:51;95503.78;;;21.98;56.10
80851;BME280;70268;50.292;6.666;2023-07-24T02:28:20;95489.22;;;21.95;56.20
80851;BME280;70268;50.292;6.666;2023-07-24T02:30:50;95479.94;;;21.93;56.33
80851;BME280;70268;50.292;6.666;2023-07-24T02:33:26;95474.84;;;21.98;56.12
80851;BME280;70268;50.292;6.666;2023-07-24T02:35:55;95465.19;;;21.92;56.35
80851;BME280;70268;50.292;6.666;2023-07-24T02:38:24;95467.38;;;21.95;56.35
80851;BME280;70268;50.292;6.666;2023-07-24T02:40:52;95468.38;;;21.94;56.32
80851;BME280;70268;50.292;6.666;2023-07-24T02:43:21;95471.44;;;21.91;56.02
80851;BME280;70268;50.292;6.666;2023-07-24T02:45:51;95477.50;;;21.91;56.13
80851;BME280;70268;50.292;6.666;2023-07-24T02:48:20;95482.56;;;21.93;56.18
80851;BME280;70268;50.292;6.666;2023-07-24T02:50:48;95473.88;;;21.92;56.22
80851;BME280;70268;50.292;6.666;2023-07-24T02:53:17;95462.38;;;21.86;56.13
80851;BME280;70268;50.292;6.666;2023-07-24T02:55:46;95442.50;;;21.91;56.13
80851;BME280;70268;50.292;6.666;2023-07-24T02:58:14;95443.16;;;21.86;56.11
80851;BME280;70268;50.292;6.666;2023-07-24T03:00:43;95446.16;;;21.90;56.20
80851;BME280;70268;50.292;6.666;2023-07-24T03:03:13;95449.22;;;21.86;56.35
80851;BME280;70268;50.292;6.666;2023-07-24T03:05:42;95454.47;;;21.86;56.32
80851;BME280;70268;50.292;6.666;2023-07-24T03:08:11;95447.75;;;21.91;56.01
80851;BME280;70268;50.292;6.666;2023-07-24T03:10:41;95442.13;;;21.87;56.33
80851;BME280;70268;50.292;6.666;2023-07-24T03:13:09;95444.38;;;21.83;56.37
80851;BME280;70268;50.292;6.666;2023-07-24T03:15:38;95445.78;;;21.86;56.19
80851;BME280;70268;50.292;6.666;2023-07-24T03:18:07;95450.63;;;21.89;55.90
80851;BME280;70268;50.292;6.666;2023-07-24T03:20:37;95436.47;;;21.83;56.34
80851;BME280;70268;50.292;6.666;2023-07-24T03:23:05;95426.94;;;21.89;56.54
80851;BME280;70268;50.292;6.666;2023-07-24T03:25:34;95428.59;;;21.83;56.53
80851;BME280;70268;50.292;6.666;2023-07-24T03:28:03;95430.34;;;21.90;56.51
80851;BME280;70268;50.292;6.666;2023-07-24T03:30:32;95432.00;;;21.84;56.67
80851;BME280;70268;50.292;6.666;2023-07-24T03:33:01;95419.06;;;21.82;56.60
80851;BME280;70268;50.292;6.666;2023-07-24T03:35:30;95418.06;;;21.83;56.76
80851;BME280;70268;50.292;6.666;2023-07-24T03:38:00;95423.19;;;21.72;57.17
80851;BME280;70268;50.292;6.666;2023-07-24T03:40:29;95427.41;;;21.79;56.84
80851;BME280;70268;50.292;6.666;2023-07-24T03:42:57;95428.66;;;21.77;56.76
80851;BME280;70268;50.292;6.666;2023-07-24T03:45:26;95423.16;;;21.78;56.91
80851;BME280;70268;50.292;6.666;2023-07-24T03:47:54;95421.56;;;21.77;56.94
80851;BME280;70268;50.292;6.666;2023-07-24T03:50:23;95426.81;;;21.77;57.07
80851;BME280;70268;50.292;6.666;2023-07-24T03:52:52;95421.75;;;21.76;57.21
80851;BME280;70268;50.292;6.666;2023-07-24T03:55:21;95424.19;;;21.77;57.07
80851;BME280;70268;50.292;6.666;2023-07-24T03:57:50;95422.16;;;21.73;57.23
80851;BME280;70268;50.292;6.666;2023-07-24T04:00:19;95412.88;;;21.77;57.10
80851;BME280;70268;50.292;6.666;2023-07-24T04:02:47;95422.81;;;21.68;57.51
80851;BME280;70268;50.292;6.666;2023-07-24T04:05:16;95423.38;;;21.77;57.05
80851;BME280;70268;50.292;6.666;2023-07-24T04:07:45;95417.69;;;21.73;57.13
80851;BME280;70268;50.292;6.666;2023-07-24T04:10:14;95421.75;;;21.76;57.10
80851;BME280;70268;50.292;6.666;2023-07-24T04:12:44;95429.06;;;21.74;57.12
80851;BME280;70268;50.292;6.666;2023-07-24T04:15:13;95436.75;;;21.75;57.07
80851;BME280;70268;50.292;6.666;2023-07-24T04:17:41;95437.16;;;21.72;56.92
80851;BME280;70268;50.292;6.666;2023-07-24T04:20:10;95436.31;;;21.72;57.11
80851;BME280;70268;50.292;6.666;2023-07-24T04:22:39;95442.44;;;21.65;57.27
80851;BME280;70268;50.292;6.666;2023-07-24T04:25:08;95441.59;;;21.78;56.96
80851;BME280;70268;50.292;6.666;2023-07-24T04:27:36;95449.69;;;21.77;57.14
80851;BME280;70268;50.292;6.666;2023-07-24T04:30:07;95449.63;;;21.83;56.78
80851;BME280;70268;50.292;6.666;2023-07-24T04:32:36;95453.91;;;21.78;56.74
80851;BME280;70268;50.292;6.666;2023-07-24T04:35:06;95440.97;;;21.76;56.92
80851;BME280;70268;50.292;6.666;2023-07-24T04:37:34;95442.81;;;21.76;56.51
80851;BME280;70268;50.292;6.666;2023-07-24T04:40:04;95441.81;;;21.70;56.59
80851;BME280;70268;50.292;6.666;2023-07-24T04:42:33;95450.13;;;21.67;56.66
80851;BME280;70268;50.292;6.666;2023-07-24T04:45:01;95444.66;;;21.68;56.63
80851;BME280;70268;50.292;6.666;2023-07-24T04:47:31;95430.84;;;21.73;56.34
80851;BME280;70268;50.292;6.666;2023-07-24T04:50:00;95430.06;;;21.73;56.15
80851;BME280;70268;50.292;6.666;2023-07-24T04:52:28;95441.16;;;21.75;56.02
80851;BME280;70268;50.292;6.666;2023-07-24T04:54:57;95445.84;;;21.73;56.03
80851;BME280;70268;50.292;6.666;2023-07-24T04:57:25;95453.13;;;21.77;55.86
80851;BME280;70268;50.292;6.666;2023-07-24T04:59:54;95450.88;;;21.74;55.76
80851;BME280;70268;50.292;6.666;2023-07-24T05:02:22;95450.28;;;21.79;55.67
80851;BME280;70268;50.292;6.666;2023-07-24T05:04:52;95450.09;;;21.74;56.64
80851;BME280;70268;50.292;6.666;2023-07-24T05:07:21;95457.84;;;21.62;56.47
80851;BME280;70268;50.292;6.666;2023-07-24T05:09:49;95463.25;;;21.74;56.12
80851;BME280;70268;50.292;6.666;2023-07-24T05:12:18;95461.50;;;21.61;56.45
80851;BME280;70268;50.292;6.666;2023-07-24T05:14:46;95461.25;;;21.69;56.21
80851;BME280;70268;50.292;6.666;2023-07-24T05:17:15;95452.72;;;21.74;55.89
80851;BME280;70268;50.292;6.666;2023-07-24T05:19:44;95451.09;;;21.73;56.02
80851;BME280;70268;50.292;6.666;2023-07-24T05:22:14;95463.66;;;21.77;55.97
80851;BME280;70268;50.292;6.666;2023-07-24T05:24:43;95463.69;;;21.71;56.14
80851;BME280;70268;50.292;6.666;2023-07-24T05:27:11;95458.75;;;21.81;55.84
80851;BME280;70268;50.292;6.666;2023-07-24T05:29:43;95457.97;;;21.80;55.84
80851;BME280;70268;50.292;6.666;2023-07-24T05:32:12;95463.78;;;21.89;55.32
80851;BME280;70268;50.292;6.666;2023-07-24T05:34:40;95462.53;;;21.92;55.37
80851;BME280;70268;50.292;6.666;2023-07-24T05:37:13;95464.75;;;21.95;55.28
80851;BME280;70268;50.292;6.666;2023-07-24T05:39:42;95465.53;;;21.95;55.12
80851;BME280;70268;50.292;6.666;2023-07-24T05:42:10;95464.31;;;21.98;54.98
80851;BME280;70268;50.292;6.666;2023-07-24T05:44:39;95465.69;;;22.00;55.00
80851;BME280;70268;50.292;6.666;2023-07-24T05:47:07;95478.06;;;22.00;54.84
80851;BME280;70268;50.292;6.666;2023-07-24T05:49:36;95471.38;;;21.97;54.96
80851;BME280;70268;50.292;6.666;2023-07-24T05:52:08;95469.03;;;21.89;55.28
80851;BME280;70268;50.292;6.666;2023-07-24T05:54:38;95472.25;;;21.91;55.25
80851;BME280;70268;50.292;6.666;2023-07-24T05:57:07;95473.66;;;21.94;55.00
80851;BME280;70268;50.292;6.666;2023-07-24T05:59:35;95467.81;;;21.92;55.05
80851;BME280;70268;50.292;6.666;2023-07-24T06:02:04;95473.88;;;21.92;55.22
80851;BME280;70268;50.292;6.666;2023-07-24T06:04:35;95464.34;;;21.91;54.89
80851;BME280;70268;50.292;6.666;2023-07-24T06:07:03;95480.00;;;21.86;54.99
80851;BME280;70268;50.292;6.666;2023-07-24T06:09:32;95478.16;;;21.86;55.18
80851;BME280;70268;50.292;6.666;2023-07-24T06:12:02;95481.63;;;21.87;55.31
80851;BME280;70268;50.292;6.666;2023-07-24T06:14:31;95481.28;;;22.02;54.70
80851;BME280;70268;50.292;6.666;2023-07-24T06:16:59;95479.25;;;22.04;54.49
80851;BME280;70268;50.292;6.666;2023-07-24T06:19:28;95483.91;;;22.02;54.68
80851;BME280;70268;50.292;6.666;2023-07-24T06:21:56;95475.22;;;22.01;54.77
80851;BME280;70268;50.292;6.666;2023-07-24T06:24:25;95480.16;;;21.91;54.99
80851;BME280;70268;50.292;6.666;2023-07-24T06:26:53;95470.59;;;21.97;54.84
80851;BME280;70268;50.292;6.666;2023-07-24T06:29:23;95470.00;;;21.95;54.69
80851;BME280;70268;50.292;6.666;2023-07-24T06:31:53;95474.09;;;21.91;54.67
80851;BME280;70268;50.292;6.666;2023-07-24T06:34:21;95470.31;;;21.80;55.33
80851;BME280;70268;50.292;6.666;2023-07-24T06:36:50;95473.59;;;21.75;55.98
80851;BME280;70268;50.292;6.666;2023-07-24T06:39:18;95465.44;;;21.83;55.08
80851;BME280;70268;50.292;6.666;2023-07-24T06:41:47;95462.53;;;21.92;54.82
80851;BME280;70268;50.292;6.666;2023-07-24T06:44:16;95467.19;;;21.90;54.87
80851;BME280;70268;50.292;6.666;2023-07-24T06:46:46;95467.03;;;21.84;54.89
80851;BME280;70268;50.292;6.666;2023-07-24T06:49:14;95466.00;;;21.85;54.69
80851;BME280;70268;50.292;6.666;2023-07-24T06:51:43;95459.59;;;21.81;55.26
80851;BME280;70268;50.292;6.666;2023-07-24T06:54:11;95460.38;;;21.82;55.04
80851;BME280;70268;50.292;6.666;2023-07-24T06:56:40;95455.97;;;21.76;55.26
80851;BME280;70268;50.292;6.666;2023-07-24T06:59:08;95454.75;;;21.78;54.88
80851;BME280;70268;50.292;6.666;2023-07-24T07:01:37;95441.59;;;21.78;55.01
80851;BME280;70268;50.292;6.666;2023-07-24T07:04:07;95444.00;;;21.73;55.43
80851;BME280;70268;50.292;6.666;2023-07-24T07:06:35;95448.91;;;21.69;55.28
80851;BME280;70268;50.292;6.666;2023-07-24T07:09:05;95444.44;;;21.77;54.96
80851;BME280;70268;50.292;6.666;2023-07-24T07:11:34;95441.81;;;21.77;55.02
80851;BME280;70268;50.292;6.666;2023-07-24T07:14:02;95429.84;;;21.74;54.95
80851;BME280;70268;50.292;6.666;2023-07-24T07:16:31;95437.38;;;21.71;55.14
80851;BME280;70268;50.292;6.666;2023-07-24T07:19:00;95422.56;;;21.76;54.75
80851;BME280;70268;50.292;6.666;2023-07-24T07:21:30;95419.13;;;21.76;54.88
80851;BME280;70268;50.292;6.666;2023-07-24T07:23:58;95440.75;;;21.78;54.55
80851;BME280;70268;50.292;6.666;2023-07-24T07:26:27;95447.06;;;21.77;54.54
80851;BME280;70268;50.292;6.666;2023-07-24T07:28:57;95436.75;;;21.75;54.68
80851;BME280;70268;50.292;6.666;2023-07-24T07:31:25;95437.94;;;21.73;54.80
80851;BME280;70268;50.292;6.666;2023-07-24T07:33:54;95430.63;;;21.75;54.70
80851;BME280;70268;50.292;6.666;2023-07-24T07:36:22;95418.53;;;21.74;54.57
80851;BME280;70268;50.292;6.666;2023-07-24T07:38:52;95409.44;;;21.69;54.90
80851;BME280;70268;50.292;6.666;2023-07-24T07:41:21;95413.09;;;21.68;55.14
80851;BME280;70268;50.292;6.666;2023-07-24T07:43:49;95413.66;;;21.77;54.41
80851;BME280;70268;50.292;6.666;2023-07-24T07:46:18;95412.22;;;21.81;54.39
80851;BME280;70268;50.292;6.666;2023-07-24T07:48:46;95410.00;;;21.78;54.61
80851;BME280;70268;50.292;6.666;2023-07-24T07:51:16;95410.59;;;21.80;54.21
80851;BME280;70268;50.292;6.666;2023-07-24T07:53:44;95405.91;;;21.82;54.38
80851;BME280;70268;50.292;6.666;2023-07-24T07:56:14;95414.50;;;21.71;55.67
80851;BME280;70268;50.292;6.666;2023-07-24T07:58:43;95428.88;;;21.75;54.91
80851;BME280;70268;50.292;6.666;2023-07-24T08:01:12;95432.28;;;21.76;54.66
80851;BME280;70268;50.292;6.666;2023-07-24T08:03:40;95432.66;;;21.79;54.36
80851;BME280;70268;50.292;6.666;2023-07-24T08:06:10;95445.63;;;21.74;54.63
80851;BME280;70268;50.292;6.666;2023-07-24T08:08:39;95445.63;;;21.74;54.95
80851;BME280;70268;50.292;6.666;2023-07-24T08:11:08;95448.06;;;21.76;54.72
80851;BME280;70268;50.292;6.666;2023-07-24T08:13:38;95438.53;;;21.75;54.56
80851;BME280;70268;50.292;6.666;2023-07-24T08:16:12;95438.16;;;21.71;54.63
80851;BME280;70268;50.292;6.666;2023-07-24T08:18:46;95441.38;;;21.73;54.70
80851;BME280;70268;50.292;6.666;2023-07-24T08:21:15;95438.75;;;21.73;54.64
80851;BME280;70268;50.292;6.666;2023-07-24T08:23:44;95434.78;;;21.64;54.79
80851;BME280;70268;50.292;6.666;2023-07-24T08:26:12;95445.69;;;21.67;54.90
80851;BME280;70268;50.292;6.666;2023-07-24T08:28:42;95435.16;;;21.67;54.88
80851;BME280;70268;50.292;6.666;2023-07-24T08:31:11;95436.97;;;21.67;54.50
80851;BME280;70268;50.292;6.666;2023-07-24T08:33:39;95433.69;;;21.72;54.49
80851;BME280;70268;50.292;6.666;2023-07-24T08:36:08;95433.91;;;21.70;54.65
80851;BME280;70268;50.292;6.666;2023-07-24T08:38:39;95434.13;;;21.68;54.40
80851;BME280;70268;50.292;6.666;2023-07-24T08:41:10;95428.06;;;21.68;54.88
80851;BME280;70268;50.292;6.666;2023-07-24T08:43:41;95422.59;;;21.69;54.58
80851;BME280;70268;50.292;6.666;2023-07-24T08:46:11;95429.91;;;21.67;54.55
80851;BME280;70268;50.292;6.666;2023-07-24T08:48:42;95416.31;;;21.71;54.53
80851;BME280;70268;50.292;6.666;2023-07-24T08:51:12;95416.53;;;21.69;54.47
80851;BME280;70268;50.292;6.666;2023-07-24T08:53:42;95410.50;;;21.62;54.79
80851;BME280;70268;50.292;6.666;2023-07-24T08:56:12;95404.41;;;21.68;54.54
80851;BME280;70268;50.292;6.666;2023-07-24T08:58:41;95409.09;;;21.59;54.83
80851;BME280;70268;50.292;6.666;2023-07-24T09:01:11;95411.72;;;21.66;54.60
80851;BME280;70268;50.292;6.666;2023-07-24T09:03:40;95409.22;;;21.71;54.44
80851;BME280;70268;50.292;6.666;2023-07-24T09:06:08;95411.50;;;21.67;54.30
80851;BME280;70268;50.292;6.666;2023-07-24T09:08:38;95397.38;;;21.62;55.44
80851;BME280;70268;50.292;6.666;2023-07-24T09:11:09;95397.50;;;21.67;54.66
80851;BME280;70268;50.292;6.666;2023-07-24T09:13:41;95388.41;;;21.69;54.59
80851;BME280;70268;50.292;6.666;2023-07-24T09:16:21;95387.81;;;21.67;54.52
80851;BME280;70268;50.292;6.666;2023-07-24T09:18:50;95378.31;;;21.66;54.59
80851;BME280;70268;50.292;6.666;2023-07-24T09:21:30;95378.38;;;21.60;55.28
80851;BME280;70268;50.292;6.666;2023-07-24T09:24:09;95375.09;;;21.64;55.11
80851;BME280;70268;50.292;6.666;2023-07-24T09:26:47;95368.00;;;21.65;54.69
80851;BME280;70268;50.292;6.666;2023-07-24T09:29:16;95368.56;;;21.67;54.55
80851;BME280;70268;50.292;6.666;2023-07-24T09:31:46;95357.03;;;21.68;54.42
80851;BME280;70268;50.292;6.666;2023-07-24T09:34:16;95349.72;;;21.70;54.44
80851;BME280;70268;50.292;6.666;2023-07-24T09:36:44;95343.03;;;21.74;54.31
80851;BME280;70268;50.292;6.666;2023-07-24T09:39:13;95339.41;;;21.75;54.06
80851;BME280;70268;50.292;6.666;2023-07-24T09:41:42;95337.34;;;21.77;54.80
80851;BME280;70268;50.292;6.666;2023-07-24T09:44:15;95324.56;;;21.81;54.54
80851;BME280;70268;50.292;6.666;2023-07-24T09:46:45;95319.91;;;21.83;54.26
80851;BME280;70268;50.292;6.666;2023-07-24T09:49:27;95314.66;;;21.83;54.12
80851;BME280;70268;50.292;6.666;2023-07-24T09:51:59;95321.72;;;21.82;54.11
80851;BME280;70268;50.292;6.666;2023-07-24T09:54:32;95320.13;;;21.81;54.02
80851;BME280;70268;50.292;6.666;2023-07-24T09:57:02;95316.09;;;21.79;54.39
80851;BME280;70268;50.292;6.666;2023-07-24T09:59:46;95312.22;;;21.81;54.13
80851;BME280;70268;50.292;6.666;2023-07-24T10:02:17;95319.47;;;21.86;54.05
80851;BME280;70268;50.292;6.666;2023-07-24T10:04:46;95315.00;;;21.86;53.92
80851;BME280;70268;50.292;6.666;2023-07-24T10:07:16;95321.88;;;21.88;54.25
80851;BME280;70268;50.292;6.666;2023-07-24T10:09:49;95320.06;;;21.88;53.97
80851;BME280;70268;50.292;6.666;2023-07-24T10:12:18;95316.63;;;21.88;53.99
80851;BME280;70268;50.292;6.666;2023-07-24T10:14:48;95320.88;;;21.89;54.20
80851;BME280;70268;50.292;6.666;2023-07-24T10:17:34;95311.38;;;21.88;53.84
80851;BME280;70268;50.292;6.666;2023-07-24T10:20:04;95323.72;;;21.87;53.89
80851;BME280;70268;50.292;6.666;2023-07-24T10:22:33;95312.97;;;21.89;53.96
80851;BME280;70268;50.292;6.666;2023-07-24T10:25:02;95317.63;;;21.86;53.85
80851;BME280;70268;50.292;6.666;2023-07-24T10:27:30;95315.00;;;21.86;53.97
80851;BME280;70268;50.292;6.666;2023-07-24T10:29:59;95316.84;;;21.86;53.94
80851;BME280;70268;50.292;6.666;2023-07-24T10:32:47;95311.56;;;21.86;53.93
80851;BME280;70268;50.292;6.666;2023-07-24T10:35:22;95314.00;;;21.88;53.80
80851;BME280;70268;50.292;6.666;2023-07-24T10:37:59;95318.25;;;21.89;54.15
80851;BME280;70268;50.292;6.666;2023-07-24T10:40:28;95314.78;;;21.88;53.82
80851;BME280;70268;50.292;6.666;2023-07-24T10:43:04;95321.09;;;21.87;54.24
80851;BME280;70268;50.292;6.666;2023-07-24T10:45:39;95319.25;;;21.88;53.85
80851;BME280;70268;50.292;6.666;2023-07-24T10:48:09;95314.22;;;21.86;53.85
80851;BME280;70268;50.292;6.666;2023-07-24T10:50:39;95317.06;;;21.84;53.58
80851;BME280;70268;50.292;6.666;2023-07-24T10:53:09;95324.72;;;21.86;54.00
80851;BME280;70268;50.292;6.666;2023-07-24T10:55:38;95311.78;;;21.84;54.03
80851;BME280;70268;50.292;6.666;2023-07-24T10:58:07;95325.53;;;21.86;54.23
80851;BME280;70268;50.292;6.666;2023-07-24T11:00:36;95319.25;;;21.88;54.18
80851;BME280;70268;50.292;6.666;2023-07-24T11:03:05;95314.00;;;21.88;53.95
80851;BME280;70268;50.292;6.666;2023-07-24T11:05:39;95316.63;;;21.88;53.91
80851;BME280;70268;50.292;6.666;2023-07-24T11:08:11;95316.41;;;21.89;53.89
80851;BME280;70268;50.292;6.666;2023-07-24T11:10:45;95320.88;;;21.89;54.01
80851;BME280;70268;50.292;6.666;2023-07-24T11:13:15;95312.75;;;21.90;53.89
80851;BME280;70268;50.292;6.666;2023-07-24T11:15:44;95316.97;;;21.91;54.22
80851;BME280;70268;50.292;6.666;2023-07-24T11:18:13;95311.28;;;21.94;54.06
80851;BME280;70268;50.292;6.666;2023-07-24T11:20:46;95308.44;;;21.96;53.87
80851;BME280;70268;50.292;6.666;2023-07-24T11:23:15;95303.38;;;21.94;53.91
80851;BME280;70268;50.292;6.666;2023-07-24T11:25:44;95313.47;;;21.97;53.84
80851;BME280;70268;50.292;6.666;2023-07-24T11:28:14;95311.44;;;21.99;53.82
80851;BME280;70268;50.292;6.666;2023-07-24T11:30:43;95308.00;;;21.99;54.26
80851;BME280;70268;50.292;6.666;2023-07-24T11:33:14;95306.19;;;21.99;54.01
80851;BME280;70268;50.292;6.666;2023-07-24T11:35:47;95304.34;;;22.00;53.83
80851;BME280;70268;50.292;6.666;2023-07-24T11:38:18;95312.25;;;22.00;53.90
80851;BME280;70268;50.292;6.666;2023-07-24T11:40:46;95301.50;;;22.01;54.12
80851;BME280;70268;50.292;6.666;2023-07-24T11:43:16;95305.75;;;22.02;54.00
80851;BME280;70268;50.292;6.666;2023-07-24T11:45:46;95311.81;;;22.03;53.82
80851;BME280;70268;50.292;6.666;2023-07-24T11:48:16;95296.00;;;22.03;53.77
80851;BME280;70268;50.292;6.666;2023-07-24T11:50:45;95298.44;;;22.04;54.14
80851;BME280;70268;50.292;6.666;2023-07-24T11:53:23;95302.91;;;22.04;53.79
80851;BME280;70268;50.292;6.666;2023-07-24T11:55:52;95310.56;;;22.06;53.97
80851;BME280;70268;50.292;6.666;2023-07-24T11:58:21;95302.06;;;22.03;54.01
80851;BME280;70268;50.292;6.666;2023-07-24T12:00:51;95305.53;;;22.04;53.97
80851;BME280;70268;50.292;6.666;2023-07-24T12:03:20;95293.97;;;22.05;53.74
80851;BME280;70268;50.292;6.666;2023-07-24T12:05:50;95285.03;;;22.06;54.25
80851;BME280;70268;50.292;6.666;2023-07-24T12:08:20;95286.88;;;22.06;53.91
80851;BME280;70268;50.292;6.666;2023-07-24T12:10:52;95291.31;;;22.05;53.78
80851;BME280;70268;50.292;6.666;2023-07-24T12:13:20;95281.84;;;22.04;53.70
80851;BME280;70268;50.292;6.666;2023-07-24T12:15:49;95280.78;;;22.05;54.22
80851;BME280;70268;50.292;6.666;2023-07-24T12:18:18;95297.63;;;22.04;53.95
80851;BME280;70268;50.292;6.666;2023-07-24T12:20:47;95291.53;;;22.03;53.75
80851;BME280;70268;50.292;6.666;2023-07-24T12:23:15;95280.00;;;22.04;53.82
80851;BME280;70268;50.292;6.666;2023-07-24T12:25:44;95291.31;;;22.05;53.63
80851;BME280;70268;50.292;6.666;2023-07-24T12:28:14;95283.44;;;22.05;53.70
80851;BME280;70268;50.292;6.666;2023-07-24T12:30:43;95286.06;;;22.05;53.72
80851;BME280;70268;50.292;6.666;2023-07-24T12:33:11;95279.78;;;22.06;53.94
80851;BME280;70268;50.292;6.666;2023-07-24T12:35:40;95260.56;;;22.06;54.10
80851;BME280;70268;50.292;6.666;2023-07-24T12:38:08;95291.94;;;22.07;53.69
80851;BME280;70268;50.292;6.666;2023-07-24T12:40:37;95268.25;;;22.07;53.92
80851;BME280;70268;50.292;6.666;2023-07-24T12:43:06;95265.59;;;22.07;53.65
80851;BME280;70268;50.292;6.666;2023-07-24T12:45:36;95261.94;;;22.08;53.91
80851;BME280;70268;50.292;6.666;2023-07-24T12:48:05;95263.53;;;22.09;53.86
80851;BME280;70268;50.292;6.666;2023-07-24T12:50:34;95256.66;;;22.08;54.04
80851;BME280;70268;50.292;6.666;2023-07-24T12:53:03;95265.38;;;22.09;53.95
80851;BME280;70268;50.292;6.666;2023-07-24T12:55:39;95264.34;;;22.10;54.12
80851;BME280;70268;50.292;6.666;2023-07-24T12:58:08;95261.72;;;22.10;54.09
80851;BME280;70268;50.292;6.666;2023-07-24T13:00:37;95271.22;;;22.11;54.00
80851;BME280;70268;50.292;6.666;2023-07-24T13:03:06;95272.25;;;22.10;54.17
80851;BME280;70268;50.292;6.666;2023-07-24T13:05:35;95264.13;;;22.11;53.90
80851;BME280;70268;50.292;6.666;2023-07-24T13:08:04;95251.78;;;22.12;54.07
80851;BME280;70268;50.292;6.666;2023-07-24T13:10:32;95251.78;;;22.12;54.06
80851;BME280;70268;50.292;6.666;2023-07-24T13:13:01;95252.56;;;22.12;53.96